Time;durP1;ratioP1;P1;durP2;ratioP2;P2;SDS_P1;SDS_P2;PMS_P1;PMS_P2;Temp;Humidity;BMP_temperature;BMP_pressure;BME280_temperature;BME280_humidity;BME280_pressure;Samples;Min_cycle;Max_cycle;Signal;HPM_P1;HPM_P2
2021/11/18 00:00:13;;;;;;;26.13;4.53;;;;;;;;;;5047316;28;20499;-72
2021/11/18 00:02:40;;;;;;;21.05;4.35;;;;;;;;;;5066160;28;20057;-73
2021/11/18 00:05:08;;;;;;;29.48;4.75;;;;;;;;;;5097772;28;20041;-72
2021/11/18 00:07:35;;;;;;;27.98;4.40;;;;;;;;;;5063795;28;20396;-73
2021/11/18 00:10:01;;;;;;;22.92;4.32;;;;;;;;;;5050940;28;20044;-72
2021/11/18 00:12:27;;;;;;;22.63;4.75;;;;;;;;;;5062684;28;20048;-73
2021/11/18 00:14:53;;;;;;;27.98;4.65;;;;;;;;;;5046848;28;20067;-73
2021/11/18 00:17:19;;;;;;;25.73;4.45;;;;;;;;;;5067177;28;20044;-72
2021/11/18 00:19:45;;;;;;;25.25;4.22;;;;;;;;;;5065223;28;20106;-70
2021/11/18 00:22:11;;;;;;;28.45;4.72;;;;;;;;;;5060619;28;20067;-72
2021/11/18 00:24:37;;;;;;;35.22;4.53;;;;;;;;;;5092823;28;20056;-70
2021/11/18 00:27:04;;;;;;;35.75;4.43;;;;;;;;;;5064381;28;20810;-70
2021/11/18 00:29:30;;;;;;;30.13;4.82;;;;;;;;;;5065168;28;20479;-70
2021/11/18 00:31:56;;;;;;;26.88;4.35;;;;;;;;;;5098578;28;20040;-71
2021/11/18 00:34:22;;;;;;;22.10;4.40;;;;;;;;;;5063125;28;20067;-71
2021/11/18 00:36:48;;;;;;;28.08;5.22;;;;;;;;;;5065506;28;20052;-70
2021/11/18 00:39:14;;;;;;;30.52;5.72;;;;;;;;;;5065035;28;20033;-70
2021/11/18 00:41:40;;;;;;;30.30;4.63;;;;;;;;;;5055443;28;20040;-70
2021/11/18 00:44:07;;;;;;;23.30;5.03;;;;;;;;;;5093969;28;20056;-72
2021/11/18 00:46:33;;;;;;;27.52;4.18;;;;;;;;;;5044802;28;20132;-71
2021/11/18 00:49:00;;;;;;;15.65;4.43;;;;;;;;;;5062568;28;20319;-71
2021/11/18 00:51:26;;;;;;;25.83;4.63;;;;;;;;;;5064929;28;20091;-70
2021/11/18 00:53:54;;;;;;;33.03;4.88;;;;;;;;;;5066668;28;20048;-70
2021/11/18 00:56:21;;;;;;;25.77;4.25;;;;;;;;;;5054397;28;20049;-71
2021/11/18 00:58:48;;;;;;;23.17;4.20;;;;;;;;;;5064638;28;20099;-72
2021/11/18 01:01:15;;;;;;;26.25;4.90;;;;;;;;;;5094211;28;20041;-70
2021/11/18 01:03:41;;;;;;;31.88;5.05;;;;;;;;;;5046095;28;20403;-70
2021/11/18 01:06:07;;;;;;;31.23;5.85;;;;;;;;;;5066370;28;20052;-71
2021/11/18 01:08:33;;;;;;;31.30;4.93;;;;;;;;;;5060230;28;20053;-70
2021/11/18 01:11:08;;;;;;;31.25;5.68;;;;;;;;;;5060571;28;20041;-70
2021/11/18 01:13:35;;;;;;;29.42;5.28;;;;;;;;;;5092303;28;20048;-70
2021/11/18 01:16:03;;;;;;;27.08;5.18;;;;;;;;;;5075447;28;20068;-72
2021/11/18 01:18:30;;;;;;;33.15;6.28;;;;;;;;;;5060056;28;20478;-71
2021/11/18 01:20:56;;;;;;;34.17;5.47;;;;;;;;;;5065396;28;20454;-70
2021/11/18 01:23:25;;;;;;;29.38;5.20;;;;;;;;;;5064747;28;20040;-71
2021/11/18 01:25:51;;;;;;;28.88;5.13;;;;;;;;;;5069075;28;20099;-72
2021/11/18 01:28:17;;;;;;;41.38;5.88;;;;;;;;;;5061734;28;20171;-72
2021/11/18 01:30:43;;;;;;;27.75;5.47;;;;;;;;;;5092430;28;20430;-71
2021/11/18 01:33:11;;;;;;;27.17;5.43;;;;;;;;;;5059640;28;20036;-71
2021/11/18 01:35:38;;;;;;;30.55;5.32;;;;;;;;;;5046758;28;20044;-72
2021/11/18 01:38:04;;;;;;;30.63;4.95;;;;;;;;;;5091950;28;20044;-72
2021/11/18 01:40:32;;;;;;;36.45;7.03;;;;;;;;;;5064344;28;20139;-71
2021/11/18 01:42:58;;;;;;;37.20;5.40;;;;;;;;;;5065583;28;20119;-71
2021/11/18 01:45:26;;;;;;;29.13;6.07;;;;;;;;;;5065868;28;20163;-71
2021/11/18 01:47:52;;;;;;;33.83;6.40;;;;;;;;;;5061327;28;20056;-71
2021/11/18 01:50:21;;;;;;;38.38;6.03;;;;;;;;;;5068717;28;20522;-71
2021/11/18 01:52:47;;;;;;;38.03;5.80;;;;;;;;;;5065120;28;20392;-71
2021/11/18 01:55:15;;;;;;;41.65;5.80;;;;;;;;;;5045200;28;20041;-71
2021/11/18 01:57:41;;;;;;;36.35;6.13;;;;;;;;;;5062471;28;20098;-71
2021/11/18 02:00:09;;;;;;;30.63;6.43;;;;;;;;;;5060135;28;20507;-70
2021/11/18 02:02:35;;;;;;;32.97;5.70;;;;;;;;;;5057168;28;20080;-70
2021/11/18 02:05:28;;;;;;;33.30;5.72;;;;;;;;;;5062458;28;20040;-71
2021/11/18 02:07:54;;;;;;;40.30;7.25;;;;;;;;;;5060252;28;20084;-73
2021/11/18 02:10:29;;;;;;;37.60;5.82;;;;;;;;;;5058565;28;20271;-71
2021/11/18 02:12:56;;;;;;;35.20;6.00;;;;;;;;;;5065016;28;20049;-71
2021/11/18 02:15:41;;;;;;;40.20;7.00;;;;;;;;;;5065306;28;20461;-71
2021/11/18 02:18:16;;;;;;;38.45;6.55;;;;;;;;;;5063435;28;20056;-72
2021/11/18 02:20:42;;;;;;;30.17;6.43;;;;;;;;;;5076936;28;20045;-70
2021/11/18 02:23:16;;;;;;;37.22;6.43;;;;;;;;;;5088753;28;20052;-70
2021/11/18 02:25:42;;;;;;;42.45;7.53;;;;;;;;;;5041776;28;20044;-70
2021/11/18 02:28:08;;;;;;;37.05;6.85;;;;;;;;;;5061108;28;20052;-71
2021/11/18 02:30:38;;;;;;;37.13;6.38;;;;;;;;;;5059429;28;20132;-71
2021/11/18 02:33:05;;;;;;;42.83;7.70;;;;;;;;;;5056387;28;20048;-70
2021/11/18 02:35:32;;;;;;;36.33;7.57;;;;;;;;;;5056763;28;20124;-71
2021/11/18 02:37:59;;;;;;;39.35;6.35;;;;;;;;;;5059326;28;20040;-71
2021/11/18 02:40:26;;;;;;;35.03;6.25;;;;;;;;;;5061380;28;20037;-71
2021/11/18 02:42:53;;;;;;;40.40;6.72;;;;;;;;;;5056776;28;20072;-70
2021/11/18 02:45:21;;;;;;;30.50;6.50;;;;;;;;;;5090932;28;20521;-70
2021/11/18 02:47:47;;;;;;;40.10;7.68;;;;;;;;;;5067296;28;20052;-71
2021/11/18 02:50:15;;;;;;;34.72;7.60;;;;;;;;;;5074224;28;20093;-70
2021/11/18 02:52:42;;;;;;;34.70;7.18;;;;;;;;;;5063111;28;20055;-70
2021/11/18 02:55:10;;;;;;;32.35;6.90;;;;;;;;;;5049580;28;20515;-71
2021/11/18 02:57:36;;;;;;;49.20;8.30;;;;;;;;;;5061936;28;20169;-71
2021/11/18 03:00:11;;;;;;;31.98;7.57;;;;;;;;;;5087053;28;20384;-70
2021/11/18 03:02:37;;;;;;;38.95;7.13;;;;;;;;;;5076839;28;20148;-71
2021/11/18 03:05:04;;;;;;;35.03;6.88;;;;;;;;;;5070337;28;20056;-71
2021/11/18 03:07:30;;;;;;;34.95;7.40;;;;;;;;;;5087270;28;20105;-71
2021/11/18 03:09:56;;;;;;;47.47;7.32;;;;;;;;;;5064426;28;20044;-71
2021/11/18 03:12:22;;;;;;;32.67;7.97;;;;;;;;;;5059852;28;20060;-71
2021/11/18 03:14:48;;;;;;;41.08;7.60;;;;;;;;;;5054933;28;20091;-71
2021/11/18 03:17:14;;;;;;;33.17;7.43;;;;;;;;;;5065795;28;20403;-70
2021/11/18 03:19:40;;;;;;;32.20;7.28;;;;;;;;;;5065171;28;20047;-71
2021/11/18 03:22:06;;;;;;;41.92;7.25;;;;;;;;;;5048960;28;20441;-70
2021/11/18 03:24:32;;;;;;;38.13;6.82;;;;;;;;;;5061847;28;20048;-70
2021/11/18 03:26:59;;;;;;;38.63;8.82;;;;;;;;;;5064272;28;20041;-71
2021/11/18 03:29:25;;;;;;;33.88;6.75;;;;;;;;;;5040908;28;20079;-72
2021/11/18 03:31:51;;;;;;;41.25;7.07;;;;;;;;;;5064322;28;20502;-71
2021/11/18 03:34:20;;;;;;;39.47;7.85;;;;;;;;;;5059727;28;22113;-70
2021/11/18 03:36:47;;;;;;;41.20;6.75;;;;;;;;;;5069491;28;20052;-70
2021/11/18 03:39:13;;;;;;;37.47;7.75;;;;;;;;;;5088805;28;20048;-72
2021/11/18 03:41:40;;;;;;;33.65;6.65;;;;;;;;;;5066262;28;20071;-70
2021/11/18 03:44:08;;;;;;;35.55;7.28;;;;;;;;;;5062799;28;20047;-70
2021/11/18 03:46:36;;;;;;;39.42;7.60;;;;;;;;;;5068448;28;20127;-71
2021/11/18 03:49:03;;;;;;;36.72;7.63;;;;;;;;;;5090205;28;20536;-70
2021/11/18 03:51:32;;;;;;;35.38;6.95;;;;;;;;;;5088547;28;20044;-70
2021/11/18 03:53:58;;;;;;;37.42;6.97;;;;;;;;;;5047065;28;20047;-70
2021/11/18 03:56:25;;;;;;;33.78;6.18;;;;;;;;;;5063148;28;20506;-70
2021/11/18 03:58:51;;;;;;;31.52;6.45;;;;;;;;;;5087632;28;20044;-70
2021/11/18 04:01:18;;;;;;;41.78;7.25;;;;;;;;;;5057691;28;20479;-70
2021/11/18 04:03:45;;;;;;;43.30;7.55;;;;;;;;;;5088465;28;20113;-71
2021/11/18 04:06:11;;;;;;;39.45;6.97;;;;;;;;;;5059203;28;20059;-70
2021/11/18 04:08:37;;;;;;;40.92;7.60;;;;;;;;;;5067244;28;20143;-71
2021/11/18 04:11:04;;;;;;;35.53;6.03;;;;;;;;;;5060078;28;20047;-71
2021/11/18 04:13:30;;;;;;;35.35;6.38;;;;;;;;;;5064550;28;20044;-70
2021/11/18 04:15:56;;;;;;;35.75;6.60;;;;;;;;;;5066807;28;20376;-70
2021/11/18 04:18:23;;;;;;;38.15;6.68;;;;;;;;;;5063140;28;20056;-71
2021/11/18 04:20:50;;;;;;;39.95;6.05;;;;;;;;;;5070582;28;20049;-70
2021/11/18 04:23:17;;;;;;;37.53;6.60;;;;;;;;;;5059377;28;20041;-70
2021/11/18 04:25:44;;;;;;;40.85;6.50;;;;;;;;;;5062455;28;20072;-70
2021/11/18 04:28:10;;;;;;;36.67;6.03;;;;;;;;;;5059733;28;20102;-70
2021/11/18 04:30:50;;;;;;;35.47;6.28;;;;;;;;;;5065335;28;20092;-70
2021/11/18 04:33:17;;;;;;;35.03;7.47;;;;;;;;;;5061800;28;20044;-70
2021/11/18 04:35:43;;;;;;;37.85;6.20;;;;;;;;;;5061561;28;20377;-70
2021/11/18 04:38:09;;;;;;;40.58;7.82;;;;;;;;;;5037334;28;20056;-70
2021/11/18 04:40:36;;;;;;;44.80;7.30;;;;;;;;;;5089001;28;20499;-70
2021/11/18 04:43:03;;;;;;;42.15;6.68;;;;;;;;;;5060469;28;20131;-70
2021/11/18 04:45:29;;;;;;;43.40;8.10;;;;;;;;;;5088448;28;20135;-71
2021/11/18 04:47:55;;;;;;;34.08;5.78;;;;;;;;;;5065367;28;20094;-72
2021/11/18 04:50:22;;;;;;;39.00;6.55;;;;;;;;;;5064971;28;20054;-70
2021/11/18 04:52:48;;;;;;;39.20;6.15;;;;;;;;;;5052076;28;20048;-70
2021/11/18 04:55:19;;;;;;;36.20;6.38;;;;;;;;;;5061914;28;20052;-70
2021/11/18 04:57:45;;;;;;;40.47;7.32;;;;;;;;;;5064972;28;20044;-70
2021/11/18 05:00:13;;;;;;;38.58;6.65;;;;;;;;;;5066626;28;20111;-70
2021/11/18 05:02:40;;;;;;;40.78;6.50;;;;;;;;;;5059205;28;20055;-70
2021/11/18 05:05:06;;;;;;;39.03;6.82;;;;;;;;;;5045940;28;20360;-70
2021/11/18 05:07:32;;;;;;;40.63;8.32;;;;;;;;;;5060921;28;20070;-71
2021/11/18 05:09:58;;;;;;;46.50;7.50;;;;;;;;;;5071936;28;20036;-70
2021/11/18 05:12:25;;;;;;;35.58;5.97;;;;;;;;;;5071093;28;20044;-71
2021/11/18 05:14:51;;;;;;;42.13;6.30;;;;;;;;;;5048505;28;20055;-71
2021/11/18 05:17:17;;;;;;;38.85;6.18;;;;;;;;;;5066805;28;20434;-71
2021/11/18 05:19:43;;;;;;;34.20;6.20;;;;;;;;;;5063831;28;20052;-70
2021/11/18 05:22:09;;;;;;;35.70;6.25;;;;;;;;;;5064169;28;20044;-70
2021/11/18 05:24:35;;;;;;;39.65;6.53;;;;;;;;;;5067919;28;20058;-70
2021/11/18 05:27:01;;;;;;;28.70;6.05;;;;;;;;;;5065845;28;20105;-70
2021/11/18 05:29:27;;;;;;;37.65;6.47;;;;;;;;;;5068744;28;20043;-72
2021/11/18 05:31:54;;;;;;;46.05;7.45;;;;;;;;;;5066072;28;20511;-71
2021/11/18 05:34:20;;;;;;;33.30;5.65;;;;;;;;;;5064263;28;20036;-72
2021/11/18 05:36:46;;;;;;;31.30;5.80;;;;;;;;;;5062889;28;20051;-71
2021/11/18 05:39:12;;;;;;;42.28;6.53;;;;;;;;;;5060822;28;20048;-72
2021/11/18 05:41:38;;;;;;;36.22;6.15;;;;;;;;;;5042078;28;20044;-71
2021/11/18 05:44:04;;;;;;;36.97;5.80;;;;;;;;;;5056949;28;20045;-71
2021/11/18 05:46:35;;;;;;;29.35;5.90;;;;;;;;;;5085704;28;20132;-71
2021/11/18 05:49:01;;;;;;;36.85;6.80;;;;;;;;;;5075705;28;20788;-72
2021/11/18 05:51:28;;;;;;;35.42;7.00;;;;;;;;;;5058541;28;20171;-73
2021/11/18 05:53:54;;;;;;;33.97;6.80;;;;;;;;;;5058202;28;20756;-73
2021/11/18 05:56:21;;;;;;;35.65;6.82;;;;;;;;;;5061129;28;20040;-72
2021/11/18 05:58:48;;;;;;;31.83;6.72;;;;;;;;;;5062298;28;20045;-72
2021/11/18 06:01:15;;;;;;;35.60;6.88;;;;;;;;;;5050388;28;20075;-73
2021/11/18 06:03:41;;;;;;;42.05;7.13;;;;;;;;;;5074067;28;20036;-72
2021/11/18 06:06:07;;;;;;;39.40;7.13;;;;;;;;;;5055497;28;20040;-72
2021/11/18 06:08:34;;;;;;;37.60;7.53;;;;;;;;;;5053930;28;20277;-72
2021/11/18 06:11:01;;;;;;;32.83;7.00;;;;;;;;;;5051560;28;20474;-72
2021/11/18 06:13:27;;;;;;;30.45;7.25;;;;;;;;;;5072098;28;20044;-72
2021/11/18 06:15:53;;;;;;;37.00;6.75;;;;;;;;;;5067530;28;20048;-73
2021/11/18 06:18:19;;;;;;;36.08;6.55;;;;;;;;;;5096444;28;20056;-73
2021/11/18 06:20:46;;;;;;;32.58;6.38;;;;;;;;;;5052061;28;20479;-72
2021/11/18 06:23:13;;;;;;;33.25;6.45;;;;;;;;;;5073190;28;20058;-73
2021/11/18 06:25:39;;;;;;;44.80;6.65;;;;;;;;;;5064850;28;20052;-72
2021/11/18 06:28:07;;;;;;;31.70;6.05;;;;;;;;;;5069680;28;20070;-72
2021/11/18 06:30:39;;;;;;;40.80;6.65;;;;;;;;;;5056423;28;20058;-72
2021/11/18 06:33:05;;;;;;;46.17;7.68;;;;;;;;;;5072258;28;20086;-72
2021/11/18 06:35:32;;;;;;;44.33;6.80;;;;;;;;;;5052493;28;20393;-73
2021/11/18 06:37:58;;;;;;;38.33;6.88;;;;;;;;;;5073378;28;20109;-71
2021/11/18 06:40:24;;;;;;;31.08;6.43;;;;;;;;;;5073834;28;20127;-72
2021/11/18 06:42:50;;;;;;;32.05;6.50;;;;;;;;;;5074159;28;20481;-72
2021/11/18 06:45:18;;;;;;;34.47;6.63;;;;;;;;;;5073765;28;20076;-72
2021/11/18 06:47:44;;;;;;;30.08;6.28;;;;;;;;;;5069962;28;20103;-72
2021/11/18 06:50:10;;;;;;;28.13;6.15;;;;;;;;;;5059258;28;20055;-71
2021/11/18 06:52:37;;;;;;;43.47;6.35;;;;;;;;;;5070195;28;20071;-72
2021/11/18 06:55:05;;;;;;;38.75;6.10;;;;;;;;;;5053633;28;20065;-73
2021/11/18 06:57:31;;;;;;;31.80;5.63;;;;;;;;;;5066004;28;20075;-72
2021/11/18 06:59:57;;;;;;;42.67;6.75;;;;;;;;;;5054316;28;20052;-71
2021/11/18 07:02:24;;;;;;;31.95;6.10;;;;;;;;;;5077027;28;20049;-71
2021/11/18 07:04:51;;;;;;;36.92;6.60;;;;;;;;;;5056185;28;20036;-70
2021/11/18 07:07:17;;;;;;;31.25;6.13;;;;;;;;;;5067245;28;20040;-70
2021/11/18 07:09:43;;;;;;;34.55;6.03;;;;;;;;;;5083405;28;20049;-69
2021/11/18 07:12:11;;;;;;;33.80;6.40;;;;;;;;;;5055181;28;20471;-69
2021/11/18 07:14:37;;;;;;;30.60;6.25;;;;;;;;;;5055571;28;20372;-70
2021/11/18 07:17:04;;;;;;;31.63;7.15;;;;;;;;;;5068672;28;20060;-71
2021/11/18 07:19:30;;;;;;;39.25;5.53;;;;;;;;;;5037947;28;20075;-71
2021/11/18 07:21:56;;;;;;;29.48;6.05;;;;;;;;;;5054872;28;20164;-69
2021/11/18 07:24:22;;;;;;;39.63;7.45;;;;;;;;;;5060352;28;20047;-70
2021/11/18 07:26:48;;;;;;;29.58;5.22;;;;;;;;;;5065886;28;20089;-68
2021/11/18 07:29:14;;;;;;;34.35;6.00;;;;;;;;;;5054944;28;20387;-70
2021/11/18 07:31:40;;;;;;;33.33;7.07;;;;;;;;;;5053810;28;20641;-70
2021/11/18 07:34:07;;;;;;;33.38;6.07;;;;;;;;;;5058185;28;20041;-70
2021/11/18 07:36:33;;;;;;;40.80;6.90;;;;;;;;;;5079569;28;20052;-70
2021/11/18 07:38:59;;;;;;;32.80;6.25;;;;;;;;;;5025271;28;20052;-69
2021/11/18 07:41:26;;;;;;;33.75;6.55;;;;;;;;;;5085175;28;20044;-70
2021/11/18 07:43:52;;;;;;;40.25;7.13;;;;;;;;;;5061366;28;21067;-70
2021/11/18 07:46:19;;;;;;;31.15;6.40;;;;;;;;;;5078198;28;20846;-70
2021/11/18 07:48:46;;;;;;;31.38;5.95;;;;;;;;;;5055944;28;20057;-70
2021/11/18 07:51:13;;;;;;;26.77;5.55;;;;;;;;;;5055349;28;20044;-71
2021/11/18 07:53:40;;;;;;;38.85;6.88;;;;;;;;;;5069466;28;20049;-70
2021/11/18 07:56:06;;;;;;;32.17;6.32;;;;;;;;;;5058088;28;20105;-70
2021/11/18 07:58:32;;;;;;;38.10;6.13;;;;;;;;;;5084236;28;20136;-73
2021/11/18 08:00:58;;;;;;;32.92;6.45;;;;;;;;;;5065406;28;20048;-69
2021/11/18 08:03:25;;;;;;;30.50;6.25;;;;;;;;;;5044658;28;20052;-69
2021/11/18 08:05:51;;;;;;;24.70;5.95;;;;;;;;;;5072497;28;20126;-71
2021/11/18 08:08:17;;;;;;;25.38;6.93;;;;;;;;;;5063686;28;20581;-70
2021/11/18 08:10:43;;;;;;;32.45;6.10;;;;;;;;;;5061412;28;20331;-70
2021/11/18 08:13:09;;;;;;;27.48;5.78;;;;;;;;;;5078545;28;20090;-70
2021/11/18 08:15:35;;;;;;;32.40;6.63;;;;;;;;;;5058788;28;20470;-69
2021/11/18 08:18:01;;;;;;;30.33;7.00;;;;;;;;;;5055603;28;20060;-70
2021/11/18 08:20:28;;;;;;;29.67;5.82;;;;;;;;;;5076814;28;20119;-73
2021/11/18 08:22:54;;;;;;;27.23;5.68;;;;;;;;;;5058344;28;20036;-71
2021/11/18 08:25:22;;;;;;;31.27;6.32;;;;;;;;;;5064183;28;20514;-70
2021/11/18 08:27:48;;;;;;;35.38;6.80;;;;;;;;;;5064427;28;20097;-70
2021/11/18 08:30:16;;;;;;;23.88;5.20;;;;;;;;;;5059111;28;20448;-71
2021/11/18 08:32:43;;;;;;;30.77;5.40;;;;;;;;;;5063022;28;20044;-71
2021/11/18 08:35:10;;;;;;;33.50;5.75;;;;;;;;;;5077835;28;20383;-71
2021/11/18 08:37:36;;;;;;;23.17;6.43;;;;;;;;;;5061919;28;20455;-70
2021/11/18 08:40:03;;;;;;;30.75;6.65;;;;;;;;;;5046809;28;20380;-69
2021/11/18 08:42:30;;;;;;;32.22;6.10;;;;;;;;;;5065383;28;20091;-71
2021/11/18 08:44:56;;;;;;;30.80;6.47;;;;;;;;;;5063515;28;20052;-70
2021/11/18 08:47:22;;;;;;;29.48;6.43;;;;;;;;;;5042059;28;20076;-70
2021/11/18 08:49:48;;;;;;;27.80;6.18;;;;;;;;;;5073458;28;20052;-71
2021/11/18 08:52:17;;;;;;;30.38;5.88;;;;;;;;;;5044732;28;20067;-69
2021/11/18 08:54:46;;;;;;;25.10;4.80;;;;;;;;;;5064271;28;20045;-70
2021/11/18 08:57:13;;;;;;;23.05;5.90;;;;;;;;;;5051850;28;20562;-70
2021/11/18 08:59:40;;;;;;;28.77;6.88;;;;;;;;;;5064347;28;20381;-69
2021/11/18 09:02:09;;;;;;;33.38;5.55;;;;;;;;;;5060118;28;20059;-69
2021/11/18 09:04:35;;;;;;;33.47;6.32;;;;;;;;;;5060057;28;20049;-70
2021/11/18 09:07:01;;;;;;;26.20;5.38;;;;;;;;;;5067329;28;20050;-70
2021/11/18 09:09:28;;;;;;;27.92;4.93;;;;;;;;;;5046194;28;20133;-71
2021/11/18 09:11:56;;;;;;;26.95;5.35;;;;;;;;;;5066200;28;20041;-69
2021/11/18 09:14:22;;;;;;;25.02;5.15;;;;;;;;;;5095545;28;20079;-69
2021/11/18 09:16:51;;;;;;;33.50;6.88;;;;;;;;;;5069817;28;20052;-69
2021/11/18 09:19:18;;;;;;;25.10;4.57;;;;;;;;;;5064347;28;20073;-69
2021/11/18 09:21:45;;;;;;;26.17;5.40;;;;;;;;;;5046914;28;20697;-69
2021/11/18 09:24:13;;;;;;;21.48;5.70;;;;;;;;;;5061997;28;20536;-69
2021/11/18 09:26:40;;;;;;;29.20;5.03;;;;;;;;;;5067285;28;20549;-70
2021/11/18 09:29:07;;;;;;;17.95;4.38;;;;;;;;;;5070129;28;20128;-68
2021/11/18 09:31:34;;;;;;;17.08;3.30;;;;;;;;;;5067262;28;20041;-69
2021/11/18 09:34:00;;;;;;;20.92;4.15;;;;;;;;;;5062597;28;20116;-70
2021/11/18 09:36:28;;;;;;;22.20;6.38;;;;;;;;;;5068972;28;20079;-70
2021/11/18 09:38:56;;;;;;;22.90;6.75;;;;;;;;;;5059868;28;20563;-70
2021/11/18 09:41:28;;;;;;;22.40;4.10;;;;;;;;;;5068981;28;20083;-70
2021/11/18 09:43:54;;;;;;;18.65;4.20;;;;;;;;;;5065857;28;20052;-69
2021/11/18 09:46:23;;;;;;;19.45;4.28;;;;;;;;;;5064942;28;20049;-69
2021/11/18 09:49:07;;;;;;;20.15;3.40;;;;;;;;;;5067505;28;20044;-70
2021/11/18 09:51:59;;;;;;;14.70;3.83;;;;;;;;;;5066232;28;20055;-71
2021/11/18 09:54:44;;;;;;;19.38;4.43;;;;;;;;;;5059868;28;20053;-69
2021/11/18 09:57:17;;;;;;;18.17;4.18;;;;;;;;;;5050898;28;20183;-69
2021/11/18 09:59:57;;;;;;;23.15;4.55;;;;;;;;;;5062549;28;20055;-69
2021/11/18 10:02:42;;;;;;;21.50;3.92;;;;;;;;;;5082780;28;20093;-69
2021/11/18 10:05:12;;;;;;;23.50;3.90;;;;;;;;;;5056165;28;20483;-68
2021/11/18 10:07:41;;;;;;;22.63;4.30;;;;;;;;;;5067273;28;20045;-69
2021/11/18 10:10:14;;;;;;;17.20;4.57;;;;;;;;;;5049704;28;20086;-69
2021/11/18 10:12:59;;;;;;;27.58;4.45;;;;;;;;;;5064863;28;20554;-69
2021/11/18 10:15:30;;;;;;;20.17;4.18;;;;;;;;;;5081044;28;20060;-69
2021/11/18 10:17:59;;;;;;;24.48;5.07;;;;;;;;;;5045041;28;20045;-70
2021/11/18 10:20:28;;;;;;;23.80;4.43;;;;;;;;;;5065817;28;20049;-71
2021/11/18 10:22:58;;;;;;;19.92;3.90;;;;;;;;;;5049674;28;20101;-70
2021/11/18 10:25:32;;;;;;;25.40;4.20;;;;;;;;;;5101518;28;20102;-70
2021/11/18 10:28:17;;;;;;;27.88;4.25;;;;;;;;;;5067848;28;20059;-70
2021/11/18 10:30:48;;;;;;;23.00;4.20;;;;;;;;;;5063985;28;20102;-70
2021/11/18 10:33:40;;;;;;;20.17;4.65;;;;;;;;;;5067419;28;20401;-71
2021/11/18 10:36:08;;;;;;;18.27;3.88;;;;;;;;;;5085539;28;20105;-71
2021/11/18 10:38:36;;;;;;;21.35;3.85;;;;;;;;;;5078941;28;20052;-73
2021/11/18 10:41:21;;;;;;;16.95;3.88;;;;;;;;;;5077580;28;20080;-71
2021/11/18 10:44:06;;;;;;;24.17;4.40;;;;;;;;;;5055661;28;20495;-69
2021/11/18 10:46:34;;;;;;;23.33;4.45;;;;;;;;;;5060635;28;20110;-72
2021/11/18 10:49:05;;;;;;;23.85;4.45;;;;;;;;;;5087326;28;20041;-70
2021/11/18 10:51:35;;;;;;;21.83;4.70;;;;;;;;;;5065402;28;20377;-72
2021/11/18 10:54:04;;;;;;;25.98;4.65;;;;;;;;;;5042293;28;20063;-72
2021/11/18 10:56:32;;;;;;;24.42;4.68;;;;;;;;;;5099027;28;20059;-75
2021/11/18 10:59:05;;;;;;;25.65;4.78;;;;;;;;;;5091722;28;20177;-74
2021/11/18 11:01:32;;;;;;;;;;;;;;;;;;5076480;28;20541;-73
2021/11/18 11:04:00;;;;;;;23.80;3.60;;;;;;;;;;5085184;28;20409;-71
2021/11/18 11:06:27;;;;;;;27.15;4.30;;;;;;;;;;5069746;28;20064;-69
2021/11/18 11:09:08;;;;;;;26.90;4.40;;;;;;;;;;5063359;28;20049;-71
2021/11/18 11:11:36;;;;;;;25.83;4.13;;;;;;;;;;5061902;28;20055;-72
2021/11/18 11:14:14;;;;;;;29.13;4.60;;;;;;;;;;5082123;28;20058;-72
2021/11/18 11:16:44;;;;;;;19.95;3.13;;;;;;;;;;5063585;28;20049;-71
2021/11/18 11:19:11;;;;;;;22.10;3.55;;;;;;;;;;5090814;28;20743;-70
2021/11/18 11:21:40;;;;;;;24.33;3.92;;;;;;;;;;5061989;28;20137;-71
2021/11/18 11:24:21;;;;;;;19.73;4.15;;;;;;;;;;5064521;28;20132;-71
2021/11/18 11:26:50;;;;;;;24.08;4.43;;;;;;;;;;5075195;28;20480;-75
2021/11/18 11:29:16;;;;;;;25.13;4.55;;;;;;;;;;5063550;28;20105;-70
2021/11/18 11:32:01;;;;;;;23.08;4.13;;;;;;;;;;5079250;28;20059;-72
2021/11/18 11:34:50;;;;;;;21.15;3.85;;;;;;;;;;5080941;28;20127;-72
2021/11/18 11:37:17;;;;;;;19.73;3.75;;;;;;;;;;5066167;28;20048;-72
2021/11/18 11:39:43;;;;;;;22.83;4.65;;;;;;;;;;5045648;28;20045;-71
2021/11/18 11:42:15;;;;;;;28.17;4.70;;;;;;;;;;5042229;28;20087;-73
2021/11/18 11:45:00;;;;;;;28.77;4.97;;;;;;;;;;5058483;28;20388;-72
2021/11/18 11:47:26;;;;;;;21.83;4.90;;;;;;;;;;5094307;28;20043;-69
2021/11/18 11:50:07;;;;;;;29.08;4.70;;;;;;;;;;5096035;28;20403;-69
2021/11/18 11:52:52;;;;;;;21.88;4.07;;;;;;;;;;5059069;28;20163;-71
2021/11/18 11:55:27;;;;;;;23.00;4.88;;;;;;;;;;5046807;28;20045;-69
2021/11/18 11:58:02;;;;;;;20.42;4.18;;;;;;;;;;5086324;28;20045;-71
2021/11/18 12:00:43;;;;;;;28.92;6.50;;;;;;;;;;5057297;28;20048;-70
2021/11/18 12:03:12;;;;;;;22.00;3.47;;;;;;;;;;5097360;28;20080;-69
2021/11/18 12:05:44;;;;;;;22.20;4.20;;;;;;;;;;5065898;28;20092;-71
2021/11/18 12:08:19;;;;;;;28.80;4.20;;;;;;;;;;5095747;28;20049;-71
2021/11/18 12:10:49;;;;;;;30.20;4.82;;;;;;;;;;5061505;28;20041;-68
2021/11/18 12:13:22;;;;;;;27.02;4.20;;;;;;;;;;5071636;28;20072;-70
2021/11/18 12:15:48;;;;;;;;;;;;;;;;;;5059014;28;20049;-71
2021/11/18 12:18:30;;;;;;;27.08;4.72;;;;;;;;;;5059211;28;19966;-69
2021/11/18 12:20:57;;;;;;;23.00;4.30;;;;;;;;;;5060731;28;20037;-70
2021/11/18 12:23:43;;;;;;;27.25;4.65;;;;;;;;;;5062351;28;20497;-69
2021/11/18 12:26:16;;;;;;;26.08;4.65;;;;;;;;;;5082636;28;20052;-69
2021/11/18 12:28:57;;;;;;;24.35;4.57;;;;;;;;;;5095554;28;20518;-70
2021/11/18 12:31:26;;;;;;;22.63;4.70;;;;;;;;;;5067228;28;20048;-70
2021/11/18 12:33:54;;;;;;;31.30;5.75;;;;;;;;;;5061808;28;20484;-71
2021/11/18 12:36:25;;;;;;;27.38;5.28;;;;;;;;;;5056103;28;20084;-71
2021/11/18 12:39:17;;;;;;;22.98;3.95;;;;;;;;;;5091177;28;20101;-70
2021/11/18 12:42:09;;;;;;;30.17;4.78;;;;;;;;;;5050007;28;20044;-72
2021/11/18 12:44:39;;;;;;;28.05;4.20;;;;;;;;;;5069915;28;20086;-71
2021/11/18 12:47:11;;;;;;;28.15;4.32;;;;;;;;;;5102259;28;20048;-70
2021/11/18 12:49:37;;;;;;;20.17;4.35;;;;;;;;;;5069677;28;20529;-72
2021/11/18 12:52:06;;;;;;;21.63;3.85;;;;;;;;;;5089212;28;20132;-70
2021/11/18 12:54:35;;;;;;;29.13;4.95;;;;;;;;;;5054045;28;20101;-71
2021/11/18 12:57:20;;;;;;;34.25;5.93;;;;;;;;;;5050868;28;20125;-74
2021/11/18 12:59:49;;;;;;;26.85;4.30;;;;;;;;;;5103320;27;20033;-73
2021/11/18 13:02:27;;;;;;;26.50;4.90;;;;;;;;;;5062588;28;20153;-73
2021/11/18 13:04:57;;;;;;;31.77;4.85;;;;;;;;;;5069901;28;20126;-75
2021/11/18 13:07:39;;;;;;;25.00;5.00;;;;;;;;;;5052102;28;20554;-73
2021/11/18 13:10:08;;;;;;;25.30;6.25;;;;;;;;;;5056550;28;20112;-75
2021/11/18 13:12:35;;;;;;;29.08;6.97;;;;;;;;;;5092578;28;20127;-76
2021/11/18 13:15:14;;;;;;;24.50;4.22;;;;;;;;;;5070563;28;20056;-75
2021/11/18 13:17:45;;;;;;;27.27;4.97;;;;;;;;;;5087282;28;20396;-75
2021/11/18 13:20:15;;;;;;;24.13;4.90;;;;;;;;;;5052214;28;20131;-72
2021/11/18 13:22:49;;;;;;;26.95;5.28;;;;;;;;;;5095583;28;20044;-80
2021/11/18 13:25:15;;;;;;;27.08;4.50;;;;;;;;;;5066228;28;20097;-74
2021/11/18 13:27:44;;;;;;;24.70;4.63;;;;;;;;;;5081955;28;20055;-73
2021/11/18 13:30:29;;;;;;;25.35;4.65;;;;;;;;;;5098412;28;20083;-73
2021/11/18 13:32:57;;;;;;;35.45;5.40;;;;;;;;;;5065089;28;20078;-74
2021/11/18 13:35:34;;;;;;;28.83;4.72;;;;;;;;;;5059348;28;20192;-76
2021/11/18 13:38:30;;;;;;;26.10;4.38;;;;;;;;;;5089080;28;20036;-75
2021/11/18 13:41:05;;;;;;;33.53;5.03;;;;;;;;;;5051679;28;20572;-76
2021/11/18 13:43:46;;;;;;;24.30;4.35;;;;;;;;;;5096694;28;20139;-75
2021/11/18 13:46:13;;;;;;;27.00;5.22;;;;;;;;;;5061728;28;20079;-76
2021/11/18 13:48:42;;;;;;;29.48;5.00;;;;;;;;;;5093490;28;20049;-75
2021/11/18 13:51:08;;;;;;;25.02;4.70;;;;;;;;;;5051866;28;20076;-75
2021/11/18 13:53:41;;;;;;;35.05;4.97;;;;;;;;;;5078865;28;20051;-74
2021/11/18 13:56:22;;;;;;;22.10;4.65;;;;;;;;;;5048990;28;20132;-80
2021/11/18 13:58:50;;;;;;;24.55;4.78;;;;;;;;;;5085935;28;20048;-76
2021/11/18 14:01:19;;;;;;;26.40;4.80;;;;;;;;;;5062194;28;20063;-77
2021/11/18 14:03:51;;;;;;;34.47;5.68;;;;;;;;;;5075625;28;20072;-80
2021/11/18 14:06:19;;;;;;;28.33;5.28;;;;;;;;;;5052782;28;20044;-75
2021/11/18 14:08:47;;;;;;;29.75;5.25;;;;;;;;;;5063635;28;20178;-74
2021/11/18 14:11:15;;;;;;;28.17;4.70;;;;;;;;;;5043312;28;20044;-75
2021/11/18 14:13:43;;;;;;;25.10;4.78;;;;;;;;;;5066833;28;20505;-75
2021/11/18 14:16:12;;;;;;;37.17;5.47;;;;;;;;;;5074594;28;20078;-75
2021/11/18 14:18:57;;;;;;;30.00;5.55;;;;;;;;;;5047002;28;20060;-75
2021/11/18 14:21:31;;;;;;;41.30;6.45;;;;;;;;;;5063697;28;20131;-76
2021/11/18 14:23:57;;;;;;;34.70;6.25;;;;;;;;;;5057741;28;20049;-75
2021/11/18 14:26:32;;;;;;;31.85;5.68;;;;;;;;;;5044787;28;20472;-75
2021/11/18 14:29:20;;;;;;;33.30;6.05;;;;;;;;;;5047622;28;20063;-76
2021/11/18 14:31:49;;;;;;;26.45;4.93;;;;;;;;;;5054230;28;20064;-75
2021/11/18 14:34:25;;;;;;;29.48;5.32;;;;;;;;;;5070789;28;20438;-76
2021/11/18 14:36:53;;;;;;;36.33;5.32;;;;;;;;;;5060270;28;20090;-77
2021/11/18 14:39:25;;;;;;;37.20;5.93;;;;;;;;;;5057391;28;20048;-73
2021/11/18 14:42:10;;;;;;;30.33;5.40;;;;;;;;;;5093978;28;20056;-76